sensor_id;sensor_type;location;lat;lon;timestamp;P1;durP1;ratioP1;P2;durP2;ratioP2
4345;SDS011;2186;49.866;7.986;2023-06-10T00:01:36;3.83;;;3.43;;
4345;SDS011;2186;49.866;7.986;2023-06-10T00:04:04;3.50;;;3.20;;
4345;SDS011;2186;49.866;7.986;2023-06-10T00:06:30;5.60;;;5.20;;
4345;SDS011;2186;49.866;7.986;2023-06-10T00:09:02;3.53;;;3.43;;
4345;SDS011;2186;49.866;7.986;2023-06-10T00:11:33;4.90;;;3.37;;
4345;SDS011;2186;49.866;7.986;2023-06-10T00:14:00;12.20;;;4.20;;
4345;SDS011;2186;49.866;7.986;2023-06-10T00:16:27;3.70;;;3.10;;
4345;SDS011;2186;49.866;7.986;2023-06-10T00:18:53;4.40;;;4.00;;
4345;SDS011;2186;49.866;7.986;2023-06-10T00:21:42;6.53;;;2.57;;
4345;SDS011;2186;49.866;7.986;2023-06-10T00:24:11;4.60;;;3.87;;
4345;SDS011;2186;49.866;7.986;2023-06-10T00:26:41;4.20;;;3.90;;
4345;SDS011;2186;49.866;7.986;2023-06-10T00:29:07;3.70;;;3.37;;
4345;SDS011;2186;49.866;7.986;2023-06-10T00:31:34;4.27;;;3.87;;
4345;SDS011;2186;49.866;7.986;2023-06-10T00:34:01;3.27;;;3.00;;
4345;SDS011;2186;49.866;7.986;2023-06-10T00:36:28;9.93;;;3.10;;
4345;SDS011;2186;49.866;7.986;2023-06-10T00:38:56;3.40;;;3.20;;
4345;SDS011;2186;49.866;7.986;2023-06-10T00:41:23;5.43;;;3.60;;
4345;SDS011;2186;49.866;7.986;2023-06-10T00:43:49;8.93;;;4.00;;
4345;SDS011;2186;49.866;7.986;2023-06-10T00:46:16;4.37;;;4.00;;
4345;SDS011;2186;49.866;7.986;2023-06-10T00:48:43;7.63;;;3.03;;
4345;SDS011;2186;49.866;7.986;2023-06-10T00:51:11;4.83;;;4.43;;
4345;SDS011;2186;49.866;7.986;2023-06-10T00:53:39;15.33;;;3.40;;
4345;SDS011;2186;49.866;7.986;2023-06-10T00:56:07;4.80;;;4.40;;
4345;SDS011;2186;49.866;7.986;2023-06-10T00:58:34;4.40;;;4.20;;
4345;SDS011;2186;49.866;7.986;2023-06-10T01:01:02;13.40;;;4.53;;
4345;SDS011;2186;49.866;7.986;2023-06-10T01:03:30;3.60;;;3.30;;
4345;SDS011;2186;49.866;7.986;2023-06-10T01:06:06;4.40;;;4.10;;
4345;SDS011;2186;49.866;7.986;2023-06-10T01:08:46;3.73;;;3.43;;
4345;SDS011;2186;49.866;7.986;2023-06-10T01:11:29;3.80;;;3.60;;
4345;SDS011;2186;49.866;7.986;2023-06-10T01:14:02;3.93;;;3.47;;
4345;SDS011;2186;49.866;7.986;2023-06-10T01:16:31;3.93;;;3.40;;
4345;SDS011;2186;49.866;7.986;2023-06-10T01:18:58;5.90;;;4.50;;
4345;SDS011;2186;49.866;7.986;2023-06-10T01:21:26;5.17;;;3.90;;
4345;SDS011;2186;49.866;7.986;2023-06-10T01:23:53;4.80;;;4.43;;
4345;SDS011;2186;49.866;7.986;2023-06-10T01:26:23;5.10;;;4.80;;
4345;SDS011;2186;49.866;7.986;2023-06-10T01:28:57;3.60;;;3.27;;
4345;SDS011;2186;49.866;7.986;2023-06-10T01:31:42;6.37;;;3.93;;
4345;SDS011;2186;49.866;7.986;2023-06-10T01:34:14;7.50;;;3.97;;
4345;SDS011;2186;49.866;7.986;2023-06-10T01:36:44;5.60;;;3.37;;
4345;SDS011;2186;49.866;7.986;2023-06-10T01:39:17;7.60;;;5.20;;
4345;SDS011;2186;49.866;7.986;2023-06-10T01:41:47;6.00;;;5.03;;
4345;SDS011;2186;49.866;7.986;2023-06-10T01:44:19;4.70;;;4.27;;
4345;SDS011;2186;49.866;7.986;2023-06-10T01:46:46;7.27;;;4.13;;
4345;SDS011;2186;49.866;7.986;2023-06-10T01:49:13;3.70;;;3.37;;
4345;SDS011;2186;49.866;7.986;2023-06-10T01:51:39;4.40;;;4.00;;
4345;SDS011;2186;49.866;7.986;2023-06-10T01:54:06;3.87;;;3.57;;
4345;SDS011;2186;49.866;7.986;2023-06-10T01:56:33;5.20;;;4.87;;
4345;SDS011;2186;49.866;7.986;2023-06-10T01:58:59;5.30;;;4.87;;
4345;SDS011;2186;49.866;7.986;2023-06-10T02:01:26;4.67;;;3.87;;
4345;SDS011;2186;49.866;7.986;2023-06-10T02:03:53;5.40;;;4.87;;
4345;SDS011;2186;49.866;7.986;2023-06-10T02:06:19;4.17;;;3.87;;
4345;SDS011;2186;49.866;7.986;2023-06-10T02:08:46;11.77;;;4.73;;
4345;SDS011;2186;49.866;7.986;2023-06-10T02:11:13;4.47;;;3.97;;
4345;SDS011;2186;49.866;7.986;2023-06-10T02:13:39;12.83;;;4.00;;
4345;SDS011;2186;49.866;7.986;2023-06-10T02:16:06;3.33;;;3.13;;
4345;SDS011;2186;49.866;7.986;2023-06-10T02:18:32;9.73;;;4.50;;
4345;SDS011;2186;49.866;7.986;2023-06-10T02:20:59;63.43;;;5.10;;
4345;SDS011;2186;49.866;7.986;2023-06-10T02:23:26;5.50;;;5.00;;
4345;SDS011;2186;49.866;7.986;2023-06-10T02:25:52;7.40;;;4.30;;
4345;SDS011;2186;49.866;7.986;2023-06-10T02:28:19;9.90;;;4.30;;
4345;SDS011;2186;49.866;7.986;2023-06-10T02:30:45;6.67;;;4.40;;
4345;SDS011;2186;49.866;7.986;2023-06-10T02:33:12;5.00;;;4.50;;
4345;SDS011;2186;49.866;7.986;2023-06-10T02:35:39;4.63;;;4.23;;
4345;SDS011;2186;49.866;7.986;2023-06-10T02:38:07;4.73;;;4.33;;
4345;SDS011;2186;49.866;7.986;2023-06-10T02:40:33;5.80;;;4.63;;
4345;SDS011;2186;49.866;7.986;2023-06-10T02:43:00;5.27;;;4.87;;
4345;SDS011;2186;49.866;7.986;2023-06-10T02:45:26;11.60;;;5.40;;
4345;SDS011;2186;49.866;7.986;2023-06-10T02:47:53;6.60;;;4.07;;
4345;SDS011;2186;49.866;7.986;2023-06-10T02:50:20;7.63;;;5.07;;
4345;SDS011;2186;49.866;7.986;2023-06-10T02:52:46;7.10;;;5.47;;
4345;SDS011;2186;49.866;7.986;2023-06-10T02:55:13;6.10;;;5.50;;
4345;SDS011;2186;49.866;7.986;2023-06-10T02:57:39;5.77;;;5.47;;
4345;SDS011;2186;49.866;7.986;2023-06-10T03:00:06;5.03;;;4.37;;
4345;SDS011;2186;49.866;7.986;2023-06-10T03:02:37;5.50;;;5.10;;
4345;SDS011;2186;49.866;7.986;2023-06-10T03:05:05;5.77;;;5.30;;
4345;SDS011;2186;49.866;7.986;2023-06-10T03:07:36;4.97;;;4.57;;
4345;SDS011;2186;49.866;7.986;2023-06-10T03:10:03;4.77;;;4.07;;
4345;SDS011;2186;49.866;7.986;2023-06-10T03:12:30;5.70;;;5.10;;
4345;SDS011;2186;49.866;7.986;2023-06-10T03:14:57;5.90;;;4.83;;
4345;SDS011;2186;49.866;7.986;2023-06-10T03:17:23;7.07;;;5.37;;
4345;SDS011;2186;49.866;7.986;2023-06-10T03:19:50;4.37;;;4.17;;
4345;SDS011;2186;49.866;7.986;2023-06-10T03:22:16;7.33;;;5.10;;
4345;SDS011;2186;49.866;7.986;2023-06-10T03:24:43;10.23;;;4.83;;
4345;SDS011;2186;49.866;7.986;2023-06-10T03:27:12;4.63;;;4.43;;
4345;SDS011;2186;49.866;7.986;2023-06-10T03:29:39;7.20;;;5.50;;
4345;SDS011;2186;49.866;7.986;2023-06-10T03:32:06;5.40;;;5.10;;
4345;SDS011;2186;49.866;7.986;2023-06-10T03:34:33;4.73;;;4.33;;
4345;SDS011;2186;49.866;7.986;2023-06-10T03:37:00;5.83;;;3.97;;
4345;SDS011;2186;49.866;7.986;2023-06-10T03:39:26;8.67;;;6.50;;
4345;SDS011;2186;49.866;7.986;2023-06-10T03:41:55;5.93;;;5.40;;
4345;SDS011;2186;49.866;7.986;2023-06-10T03:44:24;4.73;;;4.43;;
4345;SDS011;2186;49.866;7.986;2023-06-10T03:46:52;18.33;;;4.53;;
4345;SDS011;2186;49.866;7.986;2023-06-10T03:49:19;5.97;;;4.40;;
4345;SDS011;2186;49.866;7.986;2023-06-10T03:51:45;4.30;;;4.00;;
4345;SDS011;2186;49.866;7.986;2023-06-10T03:54:12;4.63;;;4.23;;
4345;SDS011;2186;49.866;7.986;2023-06-10T03:56:38;4.80;;;4.50;;
4345;SDS011;2186;49.866;7.986;2023-06-10T03:59:05;8.67;;;4.30;;
4345;SDS011;2186;49.866;7.986;2023-06-10T04:01:32;5.00;;;4.60;;
4345;SDS011;2186;49.866;7.986;2023-06-10T04:03:59;4.50;;;4.20;;
4345;SDS011;2186;49.866;7.986;2023-06-10T04:06:27;16.83;;;5.47;;
4345;SDS011;2186;49.866;7.986;2023-06-10T04:08:55;5.53;;;5.00;;
4345;SDS011;2186;49.866;7.986;2023-06-10T04:11:26;5.20;;;4.70;;
4345;SDS011;2186;49.866;7.986;2023-06-10T04:13:52;7.40;;;5.23;;
4345;SDS011;2186;49.866;7.986;2023-06-10T04:16:18;9.60;;;5.70;;
4345;SDS011;2186;49.866;7.986;2023-06-10T04:18:47;3.97;;;3.67;;
4345;SDS011;2186;49.866;7.986;2023-06-10T04:21:13;5.67;;;5.37;;
4345;SDS011;2186;49.866;7.986;2023-06-10T04:23:40;6.20;;;5.00;;
4345;SDS011;2186;49.866;7.986;2023-06-10T04:26:07;5.50;;;5.20;;
4345;SDS011;2186;49.866;7.986;2023-06-10T04:28:33;5.90;;;5.50;;
4345;SDS011;2186;49.866;7.986;2023-06-10T04:31:00;20.50;;;5.57;;
4345;SDS011;2186;49.866;7.986;2023-06-10T04:33:27;5.93;;;5.53;;
4345;SDS011;2186;49.866;7.986;2023-06-10T04:35:54;4.60;;;4.30;;
4345;SDS011;2186;49.866;7.986;2023-06-10T04:38:21;5.73;;;5.10;;
4345;SDS011;2186;49.866;7.986;2023-06-10T04:40:47;7.87;;;4.60;;
4345;SDS011;2186;49.866;7.986;2023-06-10T04:43:14;6.43;;;5.83;;
4345;SDS011;2186;49.866;7.986;2023-06-10T04:45:41;9.67;;;5.20;;
4345;SDS011;2186;49.866;7.986;2023-06-10T04:48:10;6.27;;;5.67;;
4345;SDS011;2186;49.866;7.986;2023-06-10T04:50:37;5.57;;;5.10;;
4345;SDS011;2186;49.866;7.986;2023-06-10T04:53:05;45.20;;;5.07;;
4345;SDS011;2186;49.866;7.986;2023-06-10T04:55:32;4.93;;;4.63;;
4345;SDS011;2186;49.866;7.986;2023-06-10T04:58:00;4.70;;;4.40;;
4345;SDS011;2186;49.866;7.986;2023-06-10T05:00:27;5.20;;;4.70;;
4345;SDS011;2186;49.866;7.986;2023-06-10T05:02:53;4.30;;;4.00;;
4345;SDS011;2186;49.866;7.986;2023-06-10T05:05:20;5.30;;;4.90;;
4345;SDS011;2186;49.866;7.986;2023-06-10T05:07:46;5.97;;;5.60;;
4345;SDS011;2186;49.866;7.986;2023-06-10T05:10:13;3.57;;;3.37;;
4345;SDS011;2186;49.866;7.986;2023-06-10T05:12:40;5.13;;;4.33;;
4345;SDS011;2186;49.866;7.986;2023-06-10T05:15:07;5.60;;;5.10;;
4345;SDS011;2186;49.866;7.986;2023-06-10T05:17:35;8.13;;;5.70;;
4345;SDS011;2186;49.866;7.986;2023-06-10T05:20:02;4.73;;;4.37;;
4345;SDS011;2186;49.866;7.986;2023-06-10T05:22:29;8.60;;;5.27;;
4345;SDS011;2186;49.866;7.986;2023-06-10T05:24:56;5.03;;;4.73;;
4345;SDS011;2186;49.866;7.986;2023-06-10T05:27:23;5.10;;;4.77;;
4345;SDS011;2186;49.866;7.986;2023-06-10T05:29:50;6.37;;;5.13;;
4345;SDS011;2186;49.866;7.986;2023-06-10T05:32:17;5.67;;;5.20;;
4345;SDS011;2186;49.866;7.986;2023-06-10T05:34:44;6.20;;;5.47;;
4345;SDS011;2186;49.866;7.986;2023-06-10T05:37:12;6.03;;;5.60;;
4345;SDS011;2186;49.866;7.986;2023-06-10T05:39:39;6.53;;;5.57;;
4345;SDS011;2186;49.866;7.986;2023-06-10T05:42:06;4.70;;;4.37;;
4345;SDS011;2186;49.866;7.986;2023-06-10T05:44:33;5.53;;;5.23;;
4345;SDS011;2186;49.866;7.986;2023-06-10T05:47:00;4.30;;;4.00;;
4345;SDS011;2186;49.866;7.986;2023-06-10T05:49:26;6.83;;;3.97;;
4345;SDS011;2186;49.866;7.986;2023-06-10T05:51:53;10.03;;;4.73;;
4345;SDS011;2186;49.866;7.986;2023-06-10T05:54:19;5.63;;;4.67;;
4345;SDS011;2186;49.866;7.986;2023-06-10T05:56:46;10.37;;;5.20;;
4345;SDS011;2186;49.866;7.986;2023-06-10T05:59:12;6.60;;;4.80;;
4345;SDS011;2186;49.866;7.986;2023-06-10T06:01:39;5.10;;;4.80;;
4345;SDS011;2186;49.866;7.986;2023-06-10T06:04:05;5.73;;;5.23;;
4345;SDS011;2186;49.866;7.986;2023-06-10T06:06:32;4.07;;;3.70;;
4345;SDS011;2186;49.866;7.986;2023-06-10T06:08:58;4.97;;;4.50;;
4345;SDS011;2186;49.866;7.986;2023-06-10T06:11:25;4.47;;;3.47;;
4345;SDS011;2186;49.866;7.986;2023-06-10T06:13:52;3.70;;;3.40;;
4345;SDS011;2186;49.866;7.986;2023-06-10T06:16:19;5.00;;;4.67;;
4345;SDS011;2186;49.866;7.986;2023-06-10T06:18:45;6.00;;;4.10;;
4345;SDS011;2186;49.866;7.986;2023-06-10T06:21:12;4.30;;;4.10;;
4345;SDS011;2186;49.866;7.986;2023-06-10T06:23:38;14.90;;;4.23;;
4345;SDS011;2186;49.866;7.986;2023-06-10T06:26:05;3.53;;;3.33;;
4345;SDS011;2186;49.866;7.986;2023-06-10T06:28:34;4.23;;;4.03;;
4345;SDS011;2186;49.866;7.986;2023-06-10T06:31:00;4.53;;;3.00;;
4345;SDS011;2186;49.866;7.986;2023-06-10T06:33:27;3.40;;;3.10;;
4345;SDS011;2186;49.866;7.986;2023-06-10T06:35:53;4.10;;;3.90;;
4345;SDS011;2186;49.866;7.986;2023-06-10T06:38:20;3.80;;;3.60;;
4345;SDS011;2186;49.866;7.986;2023-06-10T06:40:46;3.57;;;3.33;;
4345;SDS011;2186;49.866;7.986;2023-06-10T06:43:13;3.00;;;2.80;;
4345;SDS011;2186;49.866;7.986;2023-06-10T06:45:39;3.40;;;3.20;;
4345;SDS011;2186;49.866;7.986;2023-06-10T06:48:06;3.43;;;3.23;;
4345;SDS011;2186;49.866;7.986;2023-06-10T06:50:32;4.57;;;3.80;;
4345;SDS011;2186;49.866;7.986;2023-06-10T06:52:59;3.63;;;3.43;;
4345;SDS011;2186;49.866;7.986;2023-06-10T06:55:27;2.73;;;2.53;;
4345;SDS011;2186;49.866;7.986;2023-06-10T06:57:53;2.70;;;2.50;;
4345;SDS011;2186;49.866;7.986;2023-06-10T07:00:20;3.17;;;2.97;;
4345;SDS011;2186;49.866;7.986;2023-06-10T07:02:47;3.23;;;2.93;;
4345;SDS011;2186;49.866;7.986;2023-06-10T07:05:14;2.83;;;2.70;;
4345;SDS011;2186;49.866;7.986;2023-06-10T07:07:41;4.77;;;4.00;;
4345;SDS011;2186;49.866;7.986;2023-06-10T07:10:07;5.07;;;3.53;;
4345;SDS011;2186;49.866;7.986;2023-06-10T07:12:34;3.77;;;3.57;;
4345;SDS011;2186;49.866;7.986;2023-06-10T07:15:00;4.07;;;3.73;;
4345;SDS011;2186;49.866;7.986;2023-06-10T07:17:27;3.13;;;2.80;;
4345;SDS011;2186;49.866;7.986;2023-06-10T07:19:53;3.57;;;3.37;;
4345;SDS011;2186;49.866;7.986;2023-06-10T07:22:23;3.00;;;2.73;;
4345;SDS011;2186;49.866;7.986;2023-06-10T07:24:50;3.43;;;3.13;;
4345;SDS011;2186;49.866;7.986;2023-06-10T07:27:18;3.33;;;3.03;;
4345;SDS011;2186;49.866;7.986;2023-06-10T07:29:44;3.30;;;3.10;;
4345;SDS011;2186;49.866;7.986;2023-06-10T07:32:11;3.47;;;3.27;;
4345;SDS011;2186;49.866;7.986;2023-06-10T07:34:37;3.60;;;3.27;;
4345;SDS011;2186;49.866;7.986;2023-06-10T07:37:04;3.30;;;3.10;;
4345;SDS011;2186;49.866;7.986;2023-06-10T07:39:31;3.20;;;2.63;;
4345;SDS011;2186;49.866;7.986;2023-06-10T07:41:57;3.40;;;3.20;;
4345;SDS011;2186;49.866;7.986;2023-06-10T07:44:23;2.80;;;2.60;;
4345;SDS011;2186;49.866;7.986;2023-06-10T07:46:50;3.60;;;3.40;;
4345;SDS011;2186;49.866;7.986;2023-06-10T07:49:17;7.83;;;3.67;;
4345;SDS011;2186;49.866;7.986;2023-06-10T07:51:43;3.40;;;3.20;;
4345;SDS011;2186;49.866;7.986;2023-06-10T07:54:10;4.13;;;3.83;;
4345;SDS011;2186;49.866;7.986;2023-06-10T07:56:38;2.27;;;2.17;;
4345;SDS011;2186;49.866;7.986;2023-06-10T07:59:05;2.67;;;2.47;;
4345;SDS011;2186;49.866;7.986;2023-06-10T08:01:32;3.53;;;3.03;;
4345;SDS011;2186;49.866;7.986;2023-06-10T08:03:59;1.90;;;1.80;;
4345;SDS011;2186;49.866;7.986;2023-06-10T08:06:26;3.43;;;3.13;;
4345;SDS011;2186;49.866;7.986;2023-06-10T08:08:52;3.93;;;2.80;;
4345;SDS011;2186;49.866;7.986;2023-06-10T08:11:19;8.73;;;4.00;;
4345;SDS011;2186;49.866;7.986;2023-06-10T08:13:46;6.93;;;3.40;;
4345;SDS011;2186;49.866;7.986;2023-06-10T08:16:13;2.77;;;2.57;;
4345;SDS011;2186;49.866;7.986;2023-06-10T08:18:39;3.07;;;2.87;;
4345;SDS011;2186;49.866;7.986;2023-06-10T08:21:06;2.17;;;2.07;;
4345;SDS011;2186;49.866;7.986;2023-06-10T08:23:33;4.90;;;2.63;;
4345;SDS011;2186;49.866;7.986;2023-06-10T08:25:59;4.13;;;3.93;;
4345;SDS011;2186;49.866;7.986;2023-06-10T08:28:25;3.07;;;2.87;;
4345;SDS011;2186;49.866;7.986;2023-06-10T08:30:52;7.63;;;3.10;;
4345;SDS011;2186;49.866;7.986;2023-06-10T08:33:22;2.87;;;2.47;;
4345;SDS011;2186;49.866;7.986;2023-06-10T08:35:48;4.67;;;3.20;;
4345;SDS011;2186;49.866;7.986;2023-06-10T08:38:15;3.83;;;3.63;;
4345;SDS011;2186;49.866;7.986;2023-06-10T08:40:42;3.00;;;2.80;;
4345;SDS011;2186;49.866;7.986;2023-06-10T08:46:00;6.90;;;2.67;;
4345;SDS011;2186;49.866;7.986;2023-06-10T08:48:30;2.93;;;2.50;;
4345;SDS011;2186;49.866;7.986;2023-06-10T08:51:01;6.93;;;2.83;;
4345;SDS011;2186;49.866;7.986;2023-06-10T08:53:31;3.17;;;3.03;;
4345;SDS011;2186;49.866;7.986;2023-06-10T08:56:02;4.07;;;3.77;;
4345;SDS011;2186;49.866;7.986;2023-06-10T08:58:32;2.77;;;2.57;;
4345;SDS011;2186;49.866;7.986;2023-06-10T09:01:08;3.10;;;2.37;;
4345;SDS011;2186;49.866;7.986;2023-06-10T09:03:36;4.27;;;3.97;;
4345;SDS011;2186;49.866;7.986;2023-06-10T09:06:06;2.63;;;2.53;;
4345;SDS011;2186;49.866;7.986;2023-06-10T09:08:33;3.37;;;3.17;;
4345;SDS011;2186;49.866;7.986;2023-06-10T09:11:01;3.80;;;2.73;;
4345;SDS011;2186;49.866;7.986;2023-06-10T09:13:28;3.17;;;2.87;;
4345;SDS011;2186;49.866;7.986;2023-06-10T09:15:55;3.63;;;3.23;;
4345;SDS011;2186;49.866;7.986;2023-06-10T09:18:26;2.40;;;2.30;;
4345;SDS011;2186;49.866;7.986;2023-06-10T09:20:54;3.40;;;3.13;;
4345;SDS011;2186;49.866;7.986;2023-06-10T09:23:21;3.10;;;2.90;;
4345;SDS011;2186;49.866;7.986;2023-06-10T09:25:53;6.67;;;4.27;;
4345;SDS011;2186;49.866;7.986;2023-06-10T09:28:22;3.57;;;3.17;;
4345;SDS011;2186;49.866;7.986;2023-06-10T09:30:49;4.87;;;2.23;;
4345;SDS011;2186;49.866;7.986;2023-06-10T09:33:16;2.50;;;2.30;;
4345;SDS011;2186;49.866;7.986;2023-06-10T09:35:46;3.60;;;3.03;;
4345;SDS011;2186;49.866;7.986;2023-06-10T09:38:15;14.20;;;3.70;;
4345;SDS011;2186;49.866;7.986;2023-06-10T09:40:50;2.63;;;2.53;;
4345;SDS011;2186;49.866;7.986;2023-06-10T09:43:18;4.93;;;3.27;;
4345;SDS011;2186;49.866;7.986;2023-06-10T09:45:47;4.00;;;2.73;;
4345;SDS011;2186;49.866;7.986;2023-06-10T09:48:14;3.57;;;3.27;;
4345;SDS011;2186;49.866;7.986;2023-06-10T09:50:41;3.40;;;3.20;;
4345;SDS011;2186;49.866;7.986;2023-06-10T09:53:10;11.60;;;3.27;;
4345;SDS011;2186;49.866;7.986;2023-06-10T09:55:37;2.33;;;2.23;;
4345;SDS011;2186;49.866;7.986;2023-06-10T09:58:05;2.40;;;2.30;;
4345;SDS011;2186;49.866;7.986;2023-06-10T10:00:32;3.23;;;3.03;;
4345;SDS011;2186;49.866;7.986;2023-06-10T10:02:59;8.10;;;4.47;;
4345;SDS011;2186;49.866;7.986;2023-06-10T10:05:26;2.50;;;2.40;;
4345;SDS011;2186;49.866;7.986;2023-06-10T10:07:53;3.10;;;2.63;;
4345;SDS011;2186;49.866;7.986;2023-06-10T10:10:22;2.33;;;2.23;;
4345;SDS011;2186;49.866;7.986;2023-06-10T10:12:55;3.63;;;2.47;;
4345;SDS011;2186;49.866;7.986;2023-06-10T10:15:23;2.93;;;2.73;;
4345;SDS011;2186;49.866;7.986;2023-06-10T10:18:04;3.40;;;3.20;;
4345;SDS011;2186;49.866;7.986;2023-06-10T10:20:33;3.03;;;2.70;;
4345;SDS011;2186;49.866;7.986;2023-06-10T10:23:03;3.23;;;3.03;;
4345;SDS011;2186;49.866;7.986;2023-06-10T10:25:35;3.30;;;3.20;;
4345;SDS011;2186;49.866;7.986;2023-06-10T10:28:11;3.73;;;3.43;;
4345;SDS011;2186;49.866;7.986;2023-06-10T10:30:43;3.33;;;3.17;;
4345;SDS011;2186;49.866;7.986;2023-06-10T10:33:13;2.87;;;2.63;;
4345;SDS011;2186;49.866;7.986;2023-06-10T10:35:45;3.37;;;3.17;;
4345;SDS011;2186;49.866;7.986;2023-06-10T10:38:13;3.77;;;3.53;;
4345;SDS011;2186;49.866;7.986;2023-06-10T10:40:40;2.60;;;2.50;;
4345;SDS011;2186;49.866;7.986;2023-06-10T10:43:07;27.50;;;3.30;;
4345;SDS011;2186;49.866;7.986;2023-06-10T10:45:35;3.07;;;2.90;;
4345;SDS011;2186;49.866;7.986;2023-06-10T10:48:05;6.97;;;2.60;;
4345;SDS011;2186;49.866;7.986;2023-06-10T10:50:36;6.53;;;3.70;;
4345;SDS011;2186;49.866;7.986;2023-06-10T10:53:03;6.47;;;3.47;;
4345;SDS011;2186;49.866;7.986;2023-06-10T10:55:31;3.10;;;2.90;;
4345;SDS011;2186;49.866;7.986;2023-06-10T10:57:59;3.20;;;3.00;;
4345;SDS011;2186;49.866;7.986;2023-06-10T11:00:33;3.43;;;3.20;;
4345;SDS011;2186;49.866;7.986;2023-06-10T11:03:07;2.53;;;2.30;;
4345;SDS011;2186;49.866;7.986;2023-06-10T11:05:40;2.27;;;2.17;;
4345;SDS011;2186;49.866;7.986;2023-06-10T11:08:10;2.20;;;2.10;;
4345;SDS011;2186;49.866;7.986;2023-06-10T11:10:38;2.60;;;2.40;;
4345;SDS011;2186;49.866;7.986;2023-06-10T11:13:18;6.73;;;3.37;;
4345;SDS011;2186;49.866;7.986;2023-06-10T11:15:46;2.67;;;2.57;;
4345;SDS011;2186;49.866;7.986;2023-06-10T11:18:26;2.63;;;2.53;;
4345;SDS011;2186;49.866;7.986;2023-06-10T11:20:55;3.07;;;2.80;;
4345;SDS011;2186;49.866;7.986;2023-06-10T11:25:51;4.60;;;4.30;;
4345;SDS011;2186;49.866;7.986;2023-06-10T11:28:18;4.03;;;3.63;;
4345;SDS011;2186;49.866;7.986;2023-06-10T11:30:45;4.03;;;3.73;;
4345;SDS011;2186;49.866;7.986;2023-06-10T11:33:16;3.50;;;2.77;;
4345;SDS011;2186;49.866;7.986;2023-06-10T11:35:43;3.53;;;3.10;;
4345;SDS011;2186;49.866;7.986;2023-06-10T11:38:10;2.63;;;2.43;;
4345;SDS011;2186;49.866;7.986;2023-06-10T11:40:36;3.37;;;2.90;;
4345;SDS011;2186;49.866;7.986;2023-06-10T11:43:03;2.77;;;2.57;;
4345;SDS011;2186;49.866;7.986;2023-06-10T11:45:30;3.87;;;3.67;;
4345;SDS011;2186;49.866;7.986;2023-06-10T11:47:57;3.17;;;2.20;;
4345;SDS011;2186;49.866;7.986;2023-06-10T11:50:28;3.20;;;2.80;;
4345;SDS011;2186;49.866;7.986;2023-06-10T11:52:55;5.37;;;3.10;;
4345;SDS011;2186;49.866;7.986;2023-06-10T11:55:25;3.27;;;3.07;;
4345;SDS011;2186;49.866;7.986;2023-06-10T11:57:52;2.87;;;2.67;;
4345;SDS011;2186;49.866;7.986;2023-06-10T12:00:23;3.23;;;3.13;;
4345;SDS011;2186;49.866;7.986;2023-06-10T12:02:55;3.50;;;3.30;;
4345;SDS011;2186;49.866;7.986;2023-06-10T12:05:24;2.73;;;2.63;;
4345;SDS011;2186;49.866;7.986;2023-06-10T12:08:07;3.83;;;3.63;;
4345;SDS011;2186;49.866;7.986;2023-06-10T12:10:39;4.00;;;3.80;;
4345;SDS011;2186;49.866;7.986;2023-06-10T12:13:07;2.97;;;2.77;;
4345;SDS011;2186;49.866;7.986;2023-06-10T12:15:35;5.33;;;3.80;;
4345;SDS011;2186;49.866;7.986;2023-06-10T12:18:02;3.63;;;3.40;;
4345;SDS011;2186;49.866;7.986;2023-06-10T12:20:29;4.03;;;3.17;;
4345;SDS011;2186;49.866;7.986;2023-06-10T12:22:59;3.63;;;3.33;;
4345;SDS011;2186;49.866;7.986;2023-06-10T12:25:28;4.23;;;3.60;;
4345;SDS011;2186;49.866;7.986;2023-06-10T12:27:58;4.23;;;2.97;;
4345;SDS011;2186;49.866;7.986;2023-06-10T12:30:25;2.70;;;2.50;;
4345;SDS011;2186;49.866;7.986;2023-06-10T12:32:53;2.73;;;2.63;;
4345;SDS011;2186;49.866;7.986;2023-06-10T12:35:23;3.20;;;3.00;;
4345;SDS011;2186;49.866;7.986;2023-06-10T12:40:25;2.57;;;2.23;;
4345;SDS011;2186;49.866;7.986;2023-06-10T12:42:59;8.07;;;3.37;;
4345;SDS011;2186;49.866;7.986;2023-06-10T12:45:36;3.50;;;3.30;;
4345;SDS011;2186;49.866;7.986;2023-06-10T12:50:36;5.13;;;2.90;;
4345;SDS011;2186;49.866;7.986;2023-06-10T12:53:07;3.50;;;3.30;;
4345;SDS011;2186;49.866;7.986;2023-06-10T12:55:34;2.60;;;2.40;;
4345;SDS011;2186;49.866;7.986;2023-06-10T12:58:01;3.00;;;2.90;;
4345;SDS011;2186;49.866;7.986;2023-06-10T13:00:28;4.10;;;3.90;;
4345;SDS011;2186;49.866;7.986;2023-06-10T13:02:56;3.13;;;2.83;;
4345;SDS011;2186;49.866;7.986;2023-06-10T13:05:32;4.50;;;2.50;;
4345;SDS011;2186;49.866;7.986;2023-06-10T13:07:59;3.03;;;2.73;;
4345;SDS011;2186;49.866;7.986;2023-06-10T13:10:25;3.23;;;3.10;;
4345;SDS011;2186;49.866;7.986;2023-06-10T13:12:53;2.70;;;2.60;;
4345;SDS011;2186;49.866;7.986;2023-06-10T13:15:23;2.80;;;2.60;;
4345;SDS011;2186;49.866;7.986;2023-06-10T13:17:49;3.00;;;2.80;;
4345;SDS011;2186;49.866;7.986;2023-06-10T13:20:17;2.47;;;2.10;;
4345;SDS011;2186;49.866;7.986;2023-06-10T13:22:44;3.10;;;2.60;;
4345;SDS011;2186;49.866;7.986;2023-06-10T13:25:11;2.60;;;2.40;;
4345;SDS011;2186;49.866;7.986;2023-06-10T13:27:38;2.53;;;2.33;;
4345;SDS011;2186;49.866;7.986;2023-06-10T13:30:05;2.60;;;2.40;;
4345;SDS011;2186;49.866;7.986;2023-06-10T13:32:33;2.53;;;1.70;;
4345;SDS011;2186;49.866;7.986;2023-06-10T13:34:59;2.80;;;1.97;;
4345;SDS011;2186;49.866;7.986;2023-06-10T13:37:30;2.50;;;2.40;;
4345;SDS011;2186;49.866;7.986;2023-06-10T13:39:56;4.33;;;2.17;;
4345;SDS011;2186;49.866;7.986;2023-06-10T13:42:23;3.20;;;3.00;;
4345;SDS011;2186;49.866;7.986;2023-06-10T13:44:52;1.80;;;1.70;;
4345;SDS011;2186;49.866;7.986;2023-06-10T13:47:18;3.47;;;2.50;;
4345;SDS011;2186;49.866;7.986;2023-06-10T13:49:45;2.40;;;2.27;;
4345;SDS011;2186;49.866;7.986;2023-06-10T13:52:12;1.87;;;1.77;;
4345;SDS011;2186;49.866;7.986;2023-06-10T13:54:39;2.37;;;2.27;;
4345;SDS011;2186;49.866;7.986;2023-06-10T13:57:05;2.30;;;2.20;;
4345;SDS011;2186;49.866;7.986;2023-06-10T13:59:32;2.50;;;2.40;;
4345;SDS011;2186;49.866;7.986;2023-06-10T14:01:58;2.63;;;2.10;;
4345;SDS011;2186;49.866;7.986;2023-06-10T14:04:25;2.83;;;2.47;;
4345;SDS011;2186;49.866;7.986;2023-06-10T14:06:51;2.67;;;2.57;;
4345;SDS011;2186;49.866;7.986;2023-06-10T14:09:18;1.73;;;1.63;;
4345;SDS011;2186;49.866;7.986;2023-06-10T14:11:45;2.53;;;2.33;;
4345;SDS011;2186;49.866;7.986;2023-06-10T14:14:11;2.57;;;2.37;;
4345;SDS011;2186;49.866;7.986;2023-06-10T14:16:38;1.50;;;1.40;;
4345;SDS011;2186;49.866;7.986;2023-06-10T14:19:08;2.53;;;2.33;;
4345;SDS011;2186;49.866;7.986;2023-06-10T14:21:35;2.73;;;2.63;;
4345;SDS011;2186;49.866;7.986;2023-06-10T14:24:01;1.70;;;1.60;;
4345;SDS011;2186;49.866;7.986;2023-06-10T14:26:28;3.20;;;2.10;;
4345;SDS011;2186;49.866;7.986;2023-06-10T14:28:55;2.30;;;2.20;;
4345;SDS011;2186;49.866;7.986;2023-06-10T14:31:21;1.83;;;1.73;;
4345;SDS011;2186;49.866;7.986;2023-06-10T14:33:48;3.50;;;3.30;;
4345;SDS011;2186;49.866;7.986;2023-06-10T14:36:14;2.77;;;2.57;;
4345;SDS011;2186;49.866;7.986;2023-06-10T14:38:40;1.93;;;1.83;;
4345;SDS011;2186;49.866;7.986;2023-06-10T14:41:09;2.83;;;2.63;;
4345;SDS011;2186;49.866;7.986;2023-06-10T14:43:35;2.77;;;2.57;;
4345;SDS011;2186;49.866;7.986;2023-06-10T14:46:02;2.20;;;2.10;;
4345;SDS011;2186;49.866;7.986;2023-06-10T14:48:28;2.47;;;2.13;;
4345;SDS011;2186;49.866;7.986;2023-06-10T14:50:55;2.13;;;2.03;;
4345;SDS011;2186;49.866;7.986;2023-06-10T14:53:21;2.43;;;2.20;;
4345;SDS011;2186;49.866;7.986;2023-06-10T14:55:48;2.93;;;2.70;;
4345;SDS011;2186;49.866;7.986;2023-06-10T14:58:14;2.57;;;2.47;;
4345;SDS011;2186;49.866;7.986;2023-06-10T15:00:41;5.00;;;3.03;;
4345;SDS011;2186;49.866;7.986;2023-06-10T15:03:07;3.30;;;3.10;;
4345;SDS011;2186;49.866;7.986;2023-06-10T15:05:34;2.20;;;2.10;;
4345;SDS011;2186;49.866;7.986;2023-06-10T15:08:01;3.80;;;3.00;;
4345;SDS011;2186;49.866;7.986;2023-06-10T15:10:28;2.10;;;2.00;;
4345;SDS011;2186;49.866;7.986;2023-06-10T15:12:54;5.10;;;1.70;;
4345;SDS011;2186;49.866;7.986;2023-06-10T15:15:24;2.30;;;2.20;;
4345;SDS011;2186;49.866;7.986;2023-06-10T15:17:52;2.40;;;2.20;;
4345;SDS011;2186;49.866;7.986;2023-06-10T15:20:19;3.27;;;3.07;;
4345;SDS011;2186;49.866;7.986;2023-06-10T15:22:45;3.27;;;2.97;;
4345;SDS011;2186;49.866;7.986;2023-06-10T15:25:12;2.20;;;2.10;;
4345;SDS011;2186;49.866;7.986;2023-06-10T15:27:41;2.17;;;2.07;;
4345;SDS011;2186;49.866;7.986;2023-06-10T15:30:08;2.67;;;2.47;;